sensor_id;sensor_type;location;lat;lon;timestamp;temperature;humidity
66373;SHT30;53168;51.146;17.120;2022-08-21T00:00:15;20.58;82.90
66373;SHT30;53168;51.146;17.120;2022-08-21T00:03:07;20.58;82.82
66373;SHT30;53168;51.146;17.120;2022-08-21T00:05:44;20.56;82.94
66373;SHT30;53168;51.146;17.120;2022-08-21T00:08:21;20.53;82.89
66373;SHT30;53168;51.146;17.120;2022-08-21T00:10:54;20.51;82.86
66373;SHT30;53168;51.146;17.120;2022-08-21T00:13:28;20.50;82.83
66373;SHT30;53168;51.146;17.120;2022-08-21T00:16:02;20.45;83.06
66373;SHT30;53168;51.146;17.120;2022-08-21T00:18:35;20.42;83.02
66373;SHT30;53168;51.146;17.120;2022-08-21T00:21:12;20.37;83.36
66373;SHT30;53168;51.146;17.120;2022-08-21T00:23:49;20.30;83.42
66373;SHT30;53168;51.146;17.120;2022-08-21T00:26:25;20.24;83.52
66373;SHT30;53168;51.146;17.120;2022-08-21T00:29:28;20.19;83.54
66373;SHT30;53168;51.146;17.120;2022-08-21T00:32:04;20.15;83.73
66373;SHT30;53168;51.146;17.120;2022-08-21T00:34:38;20.10;83.91
66373;SHT30;53168;51.146;17.120;2022-08-21T00:37:11;20.06;84.03
66373;SHT30;53168;51.146;17.120;2022-08-21T00:39:45;20.01;83.95
66373;SHT30;53168;51.146;17.120;2022-08-21T00:42:18;19.97;83.97
66373;SHT30;53168;51.146;17.120;2022-08-21T00:44:52;19.93;84.13
66373;SHT30;53168;51.146;17.120;2022-08-21T00:47:26;19.91;83.99
66373;SHT30;53168;51.146;17.120;2022-08-21T00:50:00;19.88;84.00
66373;SHT30;53168;51.146;17.120;2022-08-21T00:52:43;19.86;84.10
66373;SHT30;53168;51.146;17.120;2022-08-21T00:55:17;19.85;84.07
66373;SHT30;53168;51.146;17.120;2022-08-21T00:57:54;19.84;84.04
66373;SHT30;53168;51.146;17.120;2022-08-21T01:00:30;19.81;84.07
66373;SHT30;53168;51.146;17.120;2022-08-21T01:03:08;19.80;84.11
66373;SHT30;53168;51.146;17.120;2022-08-21T01:05:45;19.79;84.22
66373;SHT30;53168;51.146;17.120;2022-08-21T01:08:19;19.76;84.19
66373;SHT30;53168;51.146;17.120;2022-08-21T01:10:54;19.75;84.13
66373;SHT30;53168;51.146;17.120;2022-08-21T01:13:32;19.74;84.19
66373;SHT30;53168;51.146;17.120;2022-08-21T01:16:13;19.70;84.34
66373;SHT30;53168;51.146;17.120;2022-08-21T01:18:51;19.69;84.20
66373;SHT30;53168;51.146;17.120;2022-08-21T01:21:25;19.67;84.32
66373;SHT30;53168;51.146;17.120;2022-08-21T01:23:59;19.65;84.34
66373;SHT30;53168;51.146;17.120;2022-08-21T01:26:33;19.61;84.49
66373;SHT30;53168;51.146;17.120;2022-08-21T01:29:09;19.58;84.66
66373;SHT30;53168;51.146;17.120;2022-08-21T01:31:52;19.52;84.75
66373;SHT30;53168;51.146;17.120;2022-08-21T01:34:25;19.50;84.75
66373;SHT30;53168;51.146;17.120;2022-08-21T01:36:59;19.48;84.70
66373;SHT30;53168;51.146;17.120;2022-08-21T01:39:33;19.44;84.90
66373;SHT30;53168;51.146;17.120;2022-08-21T01:42:07;19.42;84.81
66373;SHT30;53168;51.146;17.120;2022-08-21T01:44:42;19.39;84.98
66373;SHT30;53168;51.146;17.120;2022-08-21T01:47:17;19.38;84.96
66373;SHT30;53168;51.146;17.120;2022-08-21T01:49:50;19.36;85.01
66373;SHT30;53168;51.146;17.120;2022-08-21T01:52:24;19.35;84.94
66373;SHT30;53168;51.146;17.120;2022-08-21T01:54:58;19.33;84.98
66373;SHT30;53168;51.146;17.120;2022-08-21T01:57:33;19.29;84.95
66373;SHT30;53168;51.146;17.120;2022-08-21T02:00:09;19.31;84.99
66373;SHT30;53168;51.146;17.120;2022-08-21T02:02:47;19.27;85.12
66373;SHT30;53168;51.146;17.120;2022-08-21T02:05:24;19.25;84.93
66373;SHT30;53168;51.146;17.120;2022-08-21T02:07:58;19.22;84.78
66373;SHT30;53168;51.146;17.120;2022-08-21T02:10:32;19.21;84.94
66373;SHT30;53168;51.146;17.120;2022-08-21T02:13:05;19.18;84.83
66373;SHT30;53168;51.146;17.120;2022-08-21T02:15:44;19.17;84.77
66373;SHT30;53168;51.146;17.120;2022-08-21T02:18:17;19.15;84.69
66373;SHT30;53168;51.146;17.120;2022-08-21T02:23:46;19.09;84.81
66373;SHT30;53168;51.146;17.120;2022-08-21T02:26:20;19.08;84.84
66373;SHT30;53168;51.146;17.120;2022-08-21T02:28:53;19.04;84.93
66373;SHT30;53168;51.146;17.120;2022-08-21T02:31:27;19.00;85.03
66373;SHT30;53168;51.146;17.120;2022-08-21T02:34:01;18.95;85.11
66373;SHT30;53168;51.146;17.120;2022-08-21T02:36:34;18.93;85.13
66373;SHT30;53168;51.146;17.120;2022-08-21T02:39:08;18.92;85.07
66373;SHT30;53168;51.146;17.120;2022-08-21T02:41:42;18.90;85.18
66373;SHT30;53168;51.146;17.120;2022-08-21T02:44:15;18.88;85.22
66373;SHT30;53168;51.146;17.120;2022-08-21T02:46:59;18.86;85.14
66373;SHT30;53168;51.146;17.120;2022-08-21T02:49:32;18.86;85.25
66373;SHT30;53168;51.146;17.120;2022-08-21T02:52:06;18.85;85.16
66373;SHT30;53168;51.146;17.120;2022-08-21T02:54:40;18.84;85.18
66373;SHT30;53168;51.146;17.120;2022-08-21T02:57:14;18.85;85.28
66373;SHT30;53168;51.146;17.120;2022-08-21T02:59:47;18.84;85.42
66373;SHT30;53168;51.146;17.120;2022-08-21T03:02:21;18.82;85.24
66373;SHT30;53168;51.146;17.120;2022-08-21T03:04:54;18.83;85.24
66373;SHT30;53168;51.146;17.120;2022-08-21T03:07:27;18.84;85.25
66373;SHT30;53168;51.146;17.120;2022-08-21T03:10:02;18.83;85.19
66373;SHT30;53168;51.146;17.120;2022-08-21T03:12:37;18.80;85.22
66373;SHT30;53168;51.146;17.120;2022-08-21T03:15:13;18.78;85.33
66373;SHT30;53168;51.146;17.120;2022-08-21T03:17:50;18.77;85.17
66373;SHT30;53168;51.146;17.120;2022-08-21T03:20:24;18.76;85.07
66373;SHT30;53168;51.146;17.120;2022-08-21T03:23:00;18.77;85.06
66373;SHT30;53168;51.146;17.120;2022-08-21T03:25:41;18.78;84.95
66373;SHT30;53168;51.146;17.120;2022-08-21T03:28:16;18.77;84.97
66373;SHT30;53168;51.146;17.120;2022-08-21T03:30:54;18.77;85.05
66373;SHT30;53168;51.146;17.120;2022-08-21T03:33:28;18.73;85.13
66373;SHT30;53168;51.146;17.120;2022-08-21T03:36:03;18.71;85.17
66373;SHT30;53168;51.146;17.120;2022-08-21T03:38:38;18.71;85.06
66373;SHT30;53168;51.146;17.120;2022-08-21T03:41:12;18.71;85.14
66373;SHT30;53168;51.146;17.120;2022-08-21T03:43:45;18.70;85.08
66373;SHT30;53168;51.146;17.120;2022-08-21T03:46:18;18.70;85.07
66373;SHT30;53168;51.146;17.120;2022-08-21T03:48:52;18.70;85.13
66373;SHT30;53168;51.146;17.120;2022-08-21T03:51:26;18.71;85.08
66373;SHT30;53168;51.146;17.120;2022-08-21T03:54:01;18.70;85.15
66373;SHT30;53168;51.146;17.120;2022-08-21T03:56:34;18.70;85.14
66373;SHT30;53168;51.146;17.120;2022-08-21T03:59:08;18.70;85.10
66373;SHT30;53168;51.146;17.120;2022-08-21T04:01:50;18.68;85.22
66373;SHT30;53168;51.146;17.120;2022-08-21T04:04:26;18.68;85.07
66373;SHT30;53168;51.146;17.120;2022-08-21T04:07:00;18.69;85.09
66373;SHT30;53168;51.146;17.120;2022-08-21T04:09:34;18.68;85.14
66373;SHT30;53168;51.146;17.120;2022-08-21T04:12:08;18.69;85.04
66373;SHT30;53168;51.146;17.120;2022-08-21T04:14:41;18.70;85.00
66373;SHT30;53168;51.146;17.120;2022-08-21T04:17:14;18.70;84.90
66373;SHT30;53168;51.146;17.120;2022-08-21T04:19:48;18.72;84.87
66373;SHT30;53168;51.146;17.120;2022-08-21T04:22:24;18.71;84.92
66373;SHT30;53168;51.146;17.120;2022-08-21T04:24:57;18.70;84.88
66373;SHT30;53168;51.146;17.120;2022-08-21T04:27:30;18.72;84.97
66373;SHT30;53168;51.146;17.120;2022-08-21T04:30:04;18.72;84.96
66373;SHT30;53168;51.146;17.120;2022-08-21T04:32:41;18.71;84.90
66373;SHT30;53168;51.146;17.120;2022-08-21T04:35:18;18.73;84.93
66373;SHT30;53168;51.146;17.120;2022-08-21T04:37:54;18.71;84.90
66373;SHT30;53168;51.146;17.120;2022-08-21T04:40:30;18.74;84.83
66373;SHT30;53168;51.146;17.120;2022-08-21T04:43:04;18.76;84.81
66373;SHT30;53168;51.146;17.120;2022-08-21T04:45:41;18.76;84.85
66373;SHT30;53168;51.146;17.120;2022-08-21T04:48:17;18.77;84.84
66373;SHT30;53168;51.146;17.120;2022-08-21T04:50:57;18.76;84.82
66373;SHT30;53168;51.146;17.120;2022-08-21T04:53:38;18.76;85.01
66373;SHT30;53168;51.146;17.120;2022-08-21T04:56:20;18.74;85.14
66373;SHT30;53168;51.146;17.120;2022-08-21T04:58:56;18.72;85.12
66373;SHT30;53168;51.146;17.120;2022-08-21T05:01:40;18.73;85.09
66373;SHT30;53168;51.146;17.120;2022-08-21T05:04:20;18.76;85.05
66373;SHT30;53168;51.146;17.120;2022-08-21T05:06:58;18.79;85.05
66373;SHT30;53168;51.146;17.120;2022-08-21T05:09:36;18.80;84.95
66373;SHT30;53168;51.146;17.120;2022-08-21T05:12:11;18.82;84.91
66373;SHT30;53168;51.146;17.120;2022-08-21T05:14:45;18.82;84.95
66373;SHT30;53168;51.146;17.120;2022-08-21T05:17:19;18.80;85.03
66373;SHT30;53168;51.146;17.120;2022-08-21T05:19:52;18.79;84.97
66373;SHT30;53168;51.146;17.120;2022-08-21T05:22:26;18.79;85.03
66373;SHT30;53168;51.146;17.120;2022-08-21T05:24:59;18.77;84.94
66373;SHT30;53168;51.146;17.120;2022-08-21T05:27:38;18.76;85.12
66373;SHT30;53168;51.146;17.120;2022-08-21T05:30:12;18.77;85.03
66373;SHT30;53168;51.146;17.120;2022-08-21T05:32:46;18.76;84.98
66373;SHT30;53168;51.146;17.120;2022-08-21T05:35:26;18.75;84.95
66373;SHT30;53168;51.146;17.120;2022-08-21T05:38:01;18.73;84.91
66373;SHT30;53168;51.146;17.120;2022-08-21T05:40:46;18.69;84.87
66373;SHT30;53168;51.146;17.120;2022-08-21T05:43:20;18.67;84.92
66373;SHT30;53168;51.146;17.120;2022-08-21T05:45:53;18.67;84.94
66373;SHT30;53168;51.146;17.120;2022-08-21T05:48:30;18.65;84.97
66373;SHT30;53168;51.146;17.120;2022-08-21T05:51:08;18.64;85.01
66373;SHT30;53168;51.146;17.120;2022-08-21T05:53:45;18.63;84.92
66373;SHT30;53168;51.146;17.120;2022-08-21T05:56:18;18.63;84.96
66373;SHT30;53168;51.146;17.120;2022-08-21T05:58:52;18.59;85.11
66373;SHT30;53168;51.146;17.120;2022-08-21T06:01:28;18.58;85.10
66373;SHT30;53168;51.146;17.120;2022-08-21T06:04:03;18.59;85.06
66373;SHT30;53168;51.146;17.120;2022-08-21T06:06:37;18.59;85.03
66373;SHT30;53168;51.146;17.120;2022-08-21T06:09:10;18.60;85.07
66373;SHT30;53168;51.146;17.120;2022-08-21T06:11:44;18.55;85.13
66373;SHT30;53168;51.146;17.120;2022-08-21T06:14:17;18.54;85.09
66373;SHT30;53168;51.146;17.120;2022-08-21T06:16:51;18.53;85.08
66373;SHT30;53168;51.146;17.120;2022-08-21T06:19:24;18.51;85.24
66373;SHT30;53168;51.146;17.120;2022-08-21T06:21:57;18.48;85.29
66373;SHT30;53168;51.146;17.120;2022-08-21T06:24:31;18.46;85.31
66373;SHT30;53168;51.146;17.120;2022-08-21T06:27:05;18.45;85.37
66373;SHT30;53168;51.146;17.120;2022-08-21T06:29:39;18.43;85.45
66373;SHT30;53168;51.146;17.120;2022-08-21T06:32:14;18.42;85.53
66373;SHT30;53168;51.146;17.120;2022-08-21T06:34:48;18.42;85.54
66373;SHT30;53168;51.146;17.120;2022-08-21T06:37:21;18.41;85.44
66373;SHT30;53168;51.146;17.120;2022-08-21T06:39:56;18.40;85.43
66373;SHT30;53168;51.146;17.120;2022-08-21T06:42:30;18.38;85.56
66373;SHT30;53168;51.146;17.120;2022-08-21T06:45:04;18.36;85.70
66373;SHT30;53168;51.146;17.120;2022-08-21T06:47:38;18.34;85.68
66373;SHT30;53168;51.146;17.120;2022-08-21T06:50:12;18.32;85.77
66373;SHT30;53168;51.146;17.120;2022-08-21T06:52:45;18.29;85.81
66373;SHT30;53168;51.146;17.120;2022-08-21T06:55:20;18.28;85.92
66373;SHT30;53168;51.146;17.120;2022-08-21T06:57:57;18.25;86.06
66373;SHT30;53168;51.146;17.120;2022-08-21T07:00:30;18.21;86.23
66373;SHT30;53168;51.146;17.120;2022-08-21T07:03:04;18.08;85.73
66373;SHT30;53168;51.146;17.120;2022-08-21T07:05:45;17.85;85.05
66373;SHT30;53168;51.146;17.120;2022-08-21T07:08:27;17.69;85.12
66373;SHT30;53168;51.146;17.120;2022-08-21T07:11:03;17.55;85.45
66373;SHT30;53168;51.146;17.120;2022-08-21T07:13:40;17.44;85.60
66373;SHT30;53168;51.146;17.120;2022-08-21T07:16:14;17.36;85.84
66373;SHT30;53168;51.146;17.120;2022-08-21T07:18:50;17.31;86.03
66373;SHT30;53168;51.146;17.120;2022-08-21T07:21:23;17.26;86.06
66373;SHT30;53168;51.146;17.120;2022-08-21T07:23:57;17.21;86.46
66373;SHT30;53168;51.146;17.120;2022-08-21T07:26:30;17.11;86.41
66373;SHT30;53168;51.146;17.120;2022-08-21T07:29:04;17.01;86.29
66373;SHT30;53168;51.146;17.120;2022-08-21T07:31:38;16.91;86.20
66373;SHT30;53168;51.146;17.120;2022-08-21T07:34:11;16.76;86.00
66373;SHT30;53168;51.146;17.120;2022-08-21T07:36:45;16.65;85.99
66373;SHT30;53168;51.146;17.120;2022-08-21T07:39:18;16.55;85.92
66373;SHT30;53168;51.146;17.120;2022-08-21T07:41:52;16.43;86.09
66373;SHT30;53168;51.146;17.120;2022-08-21T07:44:25;16.35;86.10
66373;SHT30;53168;51.146;17.120;2022-08-21T07:46:59;16.29;86.30
66373;SHT30;53168;51.146;17.120;2022-08-21T07:49:33;16.24;86.42
66373;SHT30;53168;51.146;17.120;2022-08-21T07:52:07;16.24;86.55
66373;SHT30;53168;51.146;17.120;2022-08-21T07:54:40;16.23;86.57
66373;SHT30;53168;51.146;17.120;2022-08-21T07:57:13;16.25;86.62
66373;SHT30;53168;51.146;17.120;2022-08-21T07:59:49;16.26;86.66
66373;SHT30;53168;51.146;17.120;2022-08-21T08:02:24;16.28;86.75
66373;SHT30;53168;51.146;17.120;2022-08-21T08:05:00;16.31;86.64
66373;SHT30;53168;51.146;17.120;2022-08-21T08:07:36;16.33;86.57
66373;SHT30;53168;51.146;17.120;2022-08-21T08:10:10;16.33;86.69
66373;SHT30;53168;51.146;17.120;2022-08-21T08:12:44;16.34;86.71
66373;SHT30;53168;51.146;17.120;2022-08-21T08:15:20;16.35;86.73
66373;SHT30;53168;51.146;17.120;2022-08-21T08:18:06;16.33;86.67
66373;SHT30;53168;51.146;17.120;2022-08-21T08:20:40;16.35;86.56
66373;SHT30;53168;51.146;17.120;2022-08-21T08:23:14;16.35;86.63
66373;SHT30;53168;51.146;17.120;2022-08-21T08:25:52;16.33;86.62
66373;SHT30;53168;51.146;17.120;2022-08-21T08:28:25;16.31;86.60
66373;SHT30;53168;51.146;17.120;2022-08-21T08:31:03;16.29;86.59
66373;SHT30;53168;51.146;17.120;2022-08-21T08:33:36;16.28;86.56
66373;SHT30;53168;51.146;17.120;2022-08-21T08:36:13;16.30;86.66
66373;SHT30;53168;51.146;17.120;2022-08-21T08:38:49;16.31;86.56
66373;SHT30;53168;51.146;17.120;2022-08-21T08:41:22;16.33;86.50
66373;SHT30;53168;51.146;17.120;2022-08-21T08:43:59;16.34;86.49
66373;SHT30;53168;51.146;17.120;2022-08-21T08:46:38;16.39;86.50
66373;SHT30;53168;51.146;17.120;2022-08-21T08:49:15;16.39;86.42
66373;SHT30;53168;51.146;17.120;2022-08-21T08:51:54;16.43;86.48
66373;SHT30;53168;51.146;17.120;2022-08-21T08:54:34;16.47;86.51
66373;SHT30;53168;51.146;17.120;2022-08-21T08:57:16;16.51;86.51
66373;SHT30;53168;51.146;17.120;2022-08-21T08:59:54;16.57;86.39
66373;SHT30;53168;51.146;17.120;2022-08-21T09:02:36;16.63;86.26
66373;SHT30;53168;51.146;17.120;2022-08-21T09:05:18;16.73;86.23
66373;SHT30;53168;51.146;17.120;2022-08-21T09:08:00;16.83;86.13
66373;SHT30;53168;51.146;17.120;2022-08-21T09:10:57;16.88;85.89
66373;SHT30;53168;51.146;17.120;2022-08-21T09:13:41;16.92;85.82
66373;SHT30;53168;51.146;17.120;2022-08-21T09:16:28;16.94;85.75
66373;SHT30;53168;51.146;17.120;2022-08-21T09:19:23;16.98;85.78
66373;SHT30;53168;51.146;17.120;2022-08-21T09:22:28;17.00;85.65
66373;SHT30;53168;51.146;17.120;2022-08-21T09:25:15;17.05;85.65
66373;SHT30;53168;51.146;17.120;2022-08-21T09:27:54;17.11;85.59
66373;SHT30;53168;51.146;17.120;2022-08-21T09:30:28;17.16;85.40
66373;SHT30;53168;51.146;17.120;2022-08-21T09:33:03;17.17;85.18
66373;SHT30;53168;51.146;17.120;2022-08-21T09:35:47;17.19;85.10
66373;SHT30;53168;51.146;17.120;2022-08-21T09:38:25;17.19;84.93
66373;SHT30;53168;51.146;17.120;2022-08-21T09:41:03;17.18;84.95
66373;SHT30;53168;51.146;17.120;2022-08-21T09:43:51;17.14;84.84
66373;SHT30;53168;51.146;17.120;2022-08-21T09:46:26;17.14;84.85
66373;SHT30;53168;51.146;17.120;2022-08-21T09:49:01;17.15;84.52
66373;SHT30;53168;51.146;17.120;2022-08-21T09:51:48;17.15;84.17
66373;SHT30;53168;51.146;17.120;2022-08-21T09:54:26;17.14;83.90
66373;SHT30;53168;51.146;17.120;2022-08-21T09:57:13;17.15;83.95
66373;SHT30;53168;51.146;17.120;2022-08-21T10:03:13;17.07;84.11
66373;SHT30;53168;51.146;17.120;2022-08-21T10:05:56;17.00;83.93
66373;SHT30;53168;51.146;17.120;2022-08-21T10:08:39;16.98;83.83
66373;SHT30;53168;51.146;17.120;2022-08-21T10:11:13;16.95;83.80
66373;SHT30;53168;51.146;17.120;2022-08-21T10:13:57;16.95;83.80
66373;SHT30;53168;51.146;17.120;2022-08-21T10:16:49;16.90;83.52
66373;SHT30;53168;51.146;17.120;2022-08-21T10:19:35;16.87;83.43
66373;SHT30;53168;51.146;17.120;2022-08-21T10:22:21;16.84;83.34
66373;SHT30;53168;51.146;17.120;2022-08-21T10:25:14;16.82;83.24
66373;SHT30;53168;51.146;17.120;2022-08-21T10:28:00;16.76;82.93
66373;SHT30;53168;51.146;17.120;2022-08-21T10:30:45;16.71;82.87
66373;SHT30;53168;51.146;17.120;2022-08-21T10:33:29;16.73;83.09
66373;SHT30;53168;51.146;17.120;2022-08-21T10:36:18;16.74;82.98
66373;SHT30;53168;51.146;17.120;2022-08-21T10:39:07;16.74;83.02
66373;SHT30;53168;51.146;17.120;2022-08-21T10:42:16;16.71;82.99
66373;SHT30;53168;51.146;17.120;2022-08-21T10:45:05;16.71;82.87
66373;SHT30;53168;51.146;17.120;2022-08-21T10:47:54;16.72;82.65
66373;SHT30;53168;51.146;17.120;2022-08-21T10:50:34;16.73;82.50
66373;SHT30;53168;51.146;17.120;2022-08-21T10:53:22;16.76;82.59
66373;SHT30;53168;51.146;17.120;2022-08-21T10:56:22;16.83;82.54
66373;SHT30;53168;51.146;17.120;2022-08-21T10:59:11;16.91;82.41
66373;SHT30;53168;51.146;17.120;2022-08-21T11:02:13;17.05;82.33
66373;SHT30;53168;51.146;17.120;2022-08-21T11:04:53;17.12;82.16
66373;SHT30;53168;51.146;17.120;2022-08-21T11:07:35;17.22;82.35
66373;SHT30;53168;51.146;17.120;2022-08-21T11:10:18;17.27;82.01
66373;SHT30;53168;51.146;17.120;2022-08-21T11:12:58;17.22;81.73
66373;SHT30;53168;51.146;17.120;2022-08-21T11:15:43;17.22;82.00
66373;SHT30;53168;51.146;17.120;2022-08-21T11:18:27;17.22;82.06
66373;SHT30;53168;51.146;17.120;2022-08-21T11:24:38;17.20;82.09
66373;SHT30;53168;51.146;17.120;2022-08-21T11:27:25;17.17;82.13
66373;SHT30;53168;51.146;17.120;2022-08-21T11:30:31;17.17;82.06
66373;SHT30;53168;51.146;17.120;2022-08-21T11:33:56;17.22;82.30
66373;SHT30;53168;51.146;17.120;2022-08-21T11:36:44;17.24;82.21
66373;SHT30;53168;51.146;17.120;2022-08-21T11:39:30;17.27;82.24
66373;SHT30;53168;51.146;17.120;2022-08-21T11:42:16;17.26;82.21
66373;SHT30;53168;51.146;17.120;2022-08-21T11:45:07;17.26;82.22
66373;SHT30;53168;51.146;17.120;2022-08-21T11:47:58;17.23;82.17
66373;SHT30;53168;51.146;17.120;2022-08-21T11:50:45;17.21;82.15
66373;SHT30;53168;51.146;17.120;2022-08-21T11:53:21;17.22;82.14
66373;SHT30;53168;51.146;17.120;2022-08-21T11:56:03;17.22;82.15
66373;SHT30;53168;51.146;17.120;2022-08-21T11:58:45;17.21;82.24
66373;SHT30;53168;51.146;17.120;2022-08-21T12:01:27;17.20;81.99
66373;SHT30;53168;51.146;17.120;2022-08-21T12:04:08;17.18;81.87
66373;SHT30;53168;51.146;17.120;2022-08-21T12:06:54;17.17;81.91
66373;SHT30;53168;51.146;17.120;2022-08-21T12:09:39;17.17;81.68
66373;SHT30;53168;51.146;17.120;2022-08-21T12:12:26;17.16;81.55
66373;SHT30;53168;51.146;17.120;2022-08-21T12:15:15;17.17;81.30
66373;SHT30;53168;51.146;17.120;2022-08-21T12:18:00;17.20;81.32
66373;SHT30;53168;51.146;17.120;2022-08-21T12:20:41;17.22;81.29
66373;SHT30;53168;51.146;17.120;2022-08-21T12:23:28;17.25;81.13
66373;SHT30;53168;51.146;17.120;2022-08-21T12:26:18;17.27;80.90
66373;SHT30;53168;51.146;17.120;2022-08-21T12:29:05;17.32;80.87
66373;SHT30;53168;51.146;17.120;2022-08-21T12:31:57;17.38;80.83
66373;SHT30;53168;51.146;17.120;2022-08-21T12:34:35;17.41;80.60
66373;SHT30;53168;51.146;17.120;2022-08-21T12:37:16;17.46;80.43
66373;SHT30;53168;51.146;17.120;2022-08-21T12:40:04;17.52;80.36
66373;SHT30;53168;51.146;17.120;2022-08-21T12:42:51;17.54;80.20
66373;SHT30;53168;51.146;17.120;2022-08-21T12:45:32;17.56;80.25
66373;SHT30;53168;51.146;17.120;2022-08-21T12:48:14;17.61;80.47
66373;SHT30;53168;51.146;17.120;2022-08-21T12:50:56;17.59;80.32
66373;SHT30;53168;51.146;17.120;2022-08-21T12:53:41;17.61;80.47
66373;SHT30;53168;51.146;17.120;2022-08-21T12:56:21;17.60;80.47
66373;SHT30;53168;51.146;17.120;2022-08-21T12:58:57;17.64;80.58
66373;SHT30;53168;51.146;17.120;2022-08-21T13:01:35;17.68;80.64
66373;SHT30;53168;51.146;17.120;2022-08-21T13:04:17;17.72;80.55
66373;SHT30;53168;51.146;17.120;2022-08-21T13:06:56;17.73;80.49
66373;SHT30;53168;51.146;17.120;2022-08-21T13:09:36;17.76;80.56
66373;SHT30;53168;51.146;17.120;2022-08-21T13:12:19;17.81;80.75
66373;SHT30;53168;51.146;17.120;2022-08-21T13:15:01;17.84;80.69
66373;SHT30;53168;51.146;17.120;2022-08-21T13:17:39;17.91;80.69
66373;SHT30;53168;51.146;17.120;2022-08-21T13:20:23;17.96;80.61
66373;SHT30;53168;51.146;17.120;2022-08-21T13:23:01;17.99;80.50
66373;SHT30;53168;51.146;17.120;2022-08-21T13:25:50;18.05;80.42
66373;SHT30;53168;51.146;17.120;2022-08-21T13:28:25;18.08;80.32
66373;SHT30;53168;51.146;17.120;2022-08-21T13:31:08;18.10;80.32
66373;SHT30;53168;51.146;17.120;2022-08-21T13:33:43;18.11;80.25
66373;SHT30;53168;51.146;17.120;2022-08-21T13:36:18;18.17;80.20
66373;SHT30;53168;51.146;17.120;2022-08-21T13:38:59;18.23;80.14
66373;SHT30;53168;51.146;17.120;2022-08-21T13:41:36;18.26;80.03
66373;SHT30;53168;51.146;17.120;2022-08-21T13:44:22;18.27;80.01
66373;SHT30;53168;51.146;17.120;2022-08-21T13:47:07;18.31;80.08
66373;SHT30;53168;51.146;17.120;2022-08-21T13:52:53;18.31;80.10
66373;SHT30;53168;51.146;17.120;2022-08-21T13:55:39;18.27;80.17
66373;SHT30;53168;51.146;17.120;2022-08-21T13:58:23;18.28;80.29
66373;SHT30;53168;51.146;17.120;2022-08-21T14:01:01;18.27;80.34
66373;SHT30;53168;51.146;17.120;2022-08-21T14:03:36;18.27;80.42
66373;SHT30;53168;51.146;17.120;2022-08-21T14:06:16;18.24;80.45
66373;SHT30;53168;51.146;17.120;2022-08-21T14:08:55;18.20;80.44
66373;SHT30;53168;51.146;17.120;2022-08-21T14:11:32;18.17;80.50
66373;SHT30;53168;51.146;17.120;2022-08-21T14:14:12;18.16;80.60
66373;SHT30;53168;51.146;17.120;2022-08-21T14:16:55;18.18;80.68
66373;SHT30;53168;51.146;17.120;2022-08-21T14:19:52;18.21;80.64
66373;SHT30;53168;51.146;17.120;2022-08-21T14:22:37;18.20;80.66
66373;SHT30;53168;51.146;17.120;2022-08-21T14:25:14;18.19;80.63
66373;SHT30;53168;51.146;17.120;2022-08-21T14:28:14;18.17;80.66
66373;SHT30;53168;51.146;17.120;2022-08-21T14:30:57;18.19;80.60
66373;SHT30;53168;51.146;17.120;2022-08-21T14:33:44;18.19;80.60
66373;SHT30;53168;51.146;17.120;2022-08-21T14:36:25;18.19;80.65
66373;SHT30;53168;51.146;17.120;2022-08-21T14:38:59;18.16;80.75
66373;SHT30;53168;51.146;17.120;2022-08-21T14:41:56;18.16;80.83
66373;SHT30;53168;51.146;17.120;2022-08-21T14:44:31;18.17;80.90
66373;SHT30;53168;51.146;17.120;2022-08-21T14:47:05;18.17;80.93
66373;SHT30;53168;51.146;17.120;2022-08-21T14:49:39;18.22;80.95
66373;SHT30;53168;51.146;17.120;2022-08-21T14:52:13;18.25;80.83
66373;SHT30;53168;51.146;17.120;2022-08-21T14:54:47;18.29;80.79
66373;SHT30;53168;51.146;17.120;2022-08-21T14:57:20;18.33;80.79
66373;SHT30;53168;51.146;17.120;2022-08-21T14:59:59;18.38;80.71
66373;SHT30;53168;51.146;17.120;2022-08-21T15:02:33;18.41;80.65
66373;SHT30;53168;51.146;17.120;2022-08-21T15:05:07;18.42;80.64
66373;SHT30;53168;51.146;17.120;2022-08-21T15:07:46;18.41;80.71
66373;SHT30;53168;51.146;17.120;2022-08-21T15:10:20;18.39;80.74
66373;SHT30;53168;51.146;17.120;2022-08-21T15:12:54;18.41;80.75
66373;SHT30;53168;51.146;17.120;2022-08-21T15:15:28;18.43;80.73
66373;SHT30;53168;51.146;17.120;2022-08-21T15:18:08;18.44;80.61
66373;SHT30;53168;51.146;17.120;2022-08-21T15:20:42;18.47;80.55
66373;SHT30;53168;51.146;17.120;2022-08-21T15:23:16;18.51;80.50
66373;SHT30;53168;51.146;17.120;2022-08-21T15:25:51;18.54;80.43
66373;SHT30;53168;51.146;17.120;2022-08-21T15:28:28;18.58;80.34
66373;SHT30;53168;51.146;17.120;2022-08-21T15:31:03;18.63;80.30
66373;SHT30;53168;51.146;17.120;2022-08-21T15:33:37;18.69;80.30
66373;SHT30;53168;51.146;17.120;2022-08-21T15:36:10;18.72;80.22
66373;SHT30;53168;51.146;17.120;2022-08-21T15:38:44;18.73;80.11
66373;SHT30;53168;51.146;17.120;2022-08-21T15:41:18;18.74;80.03
66373;SHT30;53168;51.146;17.120;2022-08-21T15:43:52;18.76;80.04
66373;SHT30;53168;51.146;17.120;2022-08-21T15:46:26;18.75;79.95
66373;SHT30;53168;51.146;17.120;2022-08-21T15:48:59;18.76;79.94
66373;SHT30;53168;51.146;17.120;2022-08-21T15:51:33;18.76;79.90
66373;SHT30;53168;51.146;17.120;2022-08-21T15:54:11;18.78;79.86
66373;SHT30;53168;51.146;17.120;2022-08-21T15:56:45;18.80;79.87
66373;SHT30;53168;51.146;17.120;2022-08-21T15:59:21;18.80;79.78
66373;SHT30;53168;51.146;17.120;2022-08-21T16:01:55;18.82;79.68
66373;SHT30;53168;51.146;17.120;2022-08-21T16:04:29;18.82;79.66
66373;SHT30;53168;51.146;17.120;2022-08-21T16:07:03;18.80;79.58
66373;SHT30;53168;51.146;17.120;2022-08-21T16:09:38;18.77;79.59
66373;SHT30;53168;51.146;17.120;2022-08-21T16:12:13;18.75;79.65
66373;SHT30;53168;51.146;17.120;2022-08-21T16:14:54;18.74;79.75
66373;SHT30;53168;51.146;17.120;2022-08-21T16:17:30;18.70;79.83
66373;SHT30;53168;51.146;17.120;2022-08-21T16:20:08;18.66;79.96
66373;SHT30;53168;51.146;17.120;2022-08-21T16:22:44;18.63;80.07
66373;SHT30;53168;51.146;17.120;2022-08-21T16:25:18;18.63;80.23
66373;SHT30;53168;51.146;17.120;2022-08-21T16:27:54;18.60;80.33
66373;SHT30;53168;51.146;17.120;2022-08-21T16:30:31;18.60;80.39
66373;SHT30;53168;51.146;17.120;2022-08-21T16:33:10;18.61;80.48
66373;SHT30;53168;51.146;17.120;2022-08-21T16:35:54;18.62;80.58